Terminal Aerodrome Forecast
Issued by NWS Sterling, VA

Home | Current Version | Previous Version | Text Only | Print | Product List | Glossary On
Versions: 1 2 3 4 5 6 7 8 9 10 11 12 13 14 15 16 17 18 19 20 21
092
FTUS41 KLWX 290522
TAFMRB
TAF
KMRB 290522Z 2906/3006 34007KT P6SM BKN025
     FM291200 34008G14KT P6SM BKN035
     FM291400 34008G14KT P6SM FEW040
     FM300000 03004KT P6SM FEW040=

USA.gov is the U.S. government's official web portal to all federal, state and local government web resources and services.